sensor_id;sensor_type;location;lat;lon;timestamp;pressure;altitude;pressure_sealevel;temperature;humidity
26192;BME280;13935;55.672;37.764;2023-02-21T00:00:40;97794.81;;;-9.08;100.00
26192;BME280;13935;55.672;37.764;2023-02-21T00:02:01;97793.94;;;-8.78;100.00
26192;BME280;13935;55.672;37.764;2023-02-21T00:03:22;97798.97;;;-8.85;100.00
26192;BME280;13935;55.672;37.764;2023-02-21T00:04:43;97795.97;;;-8.58;100.00
26192;BME280;13935;55.672;37.764;2023-02-21T00:06:07;97793.88;;;-8.95;100.00
26192;BME280;13935;55.672;37.764;2023-02-21T00:07:27;97789.03;;;-8.93;100.00
26192;BME280;13935;55.672;37.764;2023-02-21T00:08:49;97791.38;;;-8.92;100.00
26192;BME280;13935;55.672;37.764;2023-02-21T00:10:12;97794.53;;;-9.07;100.00
26192;BME280;13935;55.672;37.764;2023-02-21T00:11:33;97787.09;;;-9.01;100.00
26192;BME280;13935;55.672;37.764;2023-02-21T00:13:03;97794.38;;;-9.02;100.00
26192;BME280;13935;55.672;37.764;2023-02-21T00:14:26;97788.84;;;-8.97;100.00
26192;BME280;13935;55.672;37.764;2023-02-21T00:15:47;97792.59;;;-9.14;100.00
26192;BME280;13935;55.672;37.764;2023-02-21T00:17:08;97780.34;;;-9.07;100.00
26192;BME280;13935;55.672;37.764;2023-02-21T00:18:36;97787.09;;;-9.10;100.00
26192;BME280;13935;55.672;37.764;2023-02-21T00:19:57;97781.31;;;-8.86;100.00
26192;BME280;13935;55.672;37.764;2023-02-21T00:21:19;97780.34;;;-9.07;100.00
26192;BME280;13935;55.672;37.764;2023-02-21T00:22:40;97780.38;;;-8.90;100.00
26192;BME280;13935;55.672;37.764;2023-02-21T00:24:01;97775.97;;;-8.86;100.00
26192;BME280;13935;55.672;37.764;2023-02-21T00:25:22;97774.72;;;-8.80;100.00
26192;BME280;13935;55.672;37.764;2023-02-21T00:26:43;97776.91;;;-8.82;100.00
26192;BME280;13935;55.672;37.764;2023-02-21T00:28:03;97778.31;;;-8.85;100.00
26192;BME280;13935;55.672;37.764;2023-02-21T00:29:25;97776.44;;;-8.84;100.00
26192;BME280;13935;55.672;37.764;2023-02-21T00:30:45;97780.00;;;-9.14;100.00
26192;BME280;13935;55.672;37.764;2023-02-21T00:32:06;97773.72;;;-9.18;100.00
26192;BME280;13935;55.672;37.764;2023-02-21T00:33:27;97776.13;;;-9.00;100.00
26192;BME280;13935;55.672;37.764;2023-02-21T00:34:47;97777.22;;;-8.92;100.00
26192;BME280;13935;55.672;37.764;2023-02-21T00:36:15;97781.00;;;-9.02;100.00
26192;BME280;13935;55.672;37.764;2023-02-21T00:37:35;97778.91;;;-9.21;100.00
26192;BME280;13935;55.672;37.764;2023-02-21T00:38:56;97774.66;;;-9.14;100.00
26192;BME280;13935;55.672;37.764;2023-02-21T00:40:17;97775.09;;;-9.29;100.00
26192;BME280;13935;55.672;37.764;2023-02-21T00:41:39;97775.59;;;-9.27;100.00
26192;BME280;13935;55.672;37.764;2023-02-21T00:43:02;97766.97;;;-8.99;100.00
26192;BME280;13935;55.672;37.764;2023-02-21T00:44:23;97771.22;;;-9.06;100.00
26192;BME280;13935;55.672;37.764;2023-02-21T00:45:44;97761.63;;;-8.99;100.00
26192;BME280;13935;55.672;37.764;2023-02-21T00:47:06;97772.44;;;-9.20;100.00
26192;BME280;13935;55.672;37.764;2023-02-21T00:48:28;97765.06;;;-9.15;100.00
26192;BME280;13935;55.672;37.764;2023-02-21T00:49:48;97765.84;;;-9.06;100.00
26192;BME280;13935;55.672;37.764;2023-02-21T00:51:10;97763.19;;;-8.98;100.00
26192;BME280;13935;55.672;37.764;2023-02-21T00:52:31;97761.09;;;-9.34;100.00
26192;BME280;13935;55.672;37.764;2023-02-21T00:53:53;97756.38;;;-9.29;100.00
26192;BME280;13935;55.672;37.764;2023-02-21T00:55:13;97758.13;;;-9.24;100.00
26192;BME280;13935;55.672;37.764;2023-02-21T00:56:34;97754.31;;;-9.40;100.00
26192;BME280;13935;55.672;37.764;2023-02-21T00:57:55;97748.69;;;-9.30;100.00
26192;BME280;13935;55.672;37.764;2023-02-21T00:59:15;97748.69;;;-9.30;100.00
26192;BME280;13935;55.672;37.764;2023-02-21T01:00:38;97741.59;;;-9.26;100.00
26192;BME280;13935;55.672;37.764;2023-02-21T01:01:58;97743.16;;;-9.34;100.00
26192;BME280;13935;55.672;37.764;2023-02-21T01:03:19;97743.50;;;-9.27;100.00
26192;BME280;13935;55.672;37.764;2023-02-21T01:04:40;97733.09;;;-9.37;100.00
26192;BME280;13935;55.672;37.764;2023-02-21T01:06:01;97737.19;;;-9.31;100.00
26192;BME280;13935;55.672;37.764;2023-02-21T01:07:22;97740.50;;;-9.34;100.00
26192;BME280;13935;55.672;37.764;2023-02-21T01:08:44;97738.25;;;-9.40;100.00
26192;BME280;13935;55.672;37.764;2023-02-21T01:10:07;97732.16;;;-9.32;100.00
26192;BME280;13935;55.672;37.764;2023-02-21T01:11:28;97736.56;;;-9.28;100.00
26192;BME280;13935;55.672;37.764;2023-02-21T01:12:49;97731.84;;;-9.14;100.00
26192;BME280;13935;55.672;37.764;2023-02-21T01:14:11;97726.59;;;-9.53;100.00
26192;BME280;13935;55.672;37.764;2023-02-21T01:15:33;97726.59;;;-9.53;100.00
26192;BME280;13935;55.672;37.764;2023-02-21T01:16:55;97728.03;;;-9.47;100.00
26192;BME280;13935;55.672;37.764;2023-02-21T01:18:15;97724.41;;;-9.42;100.00
26192;BME280;13935;55.672;37.764;2023-02-21T01:19:37;97728.22;;;-9.26;100.00
26192;BME280;13935;55.672;37.764;2023-02-21T01:20:57;97719.56;;;-9.32;100.00
26192;BME280;13935;55.672;37.764;2023-02-21T01:22:18;97723.63;;;-9.43;100.00
26192;BME280;13935;55.672;37.764;2023-02-21T01:23:39;97722.19;;;-9.57;100.00
26192;BME280;13935;55.672;37.764;2023-02-21T01:25:00;97719.56;;;-9.32;100.00
26192;BME280;13935;55.672;37.764;2023-02-21T01:26:21;97721.53;;;-9.63;100.00
26192;BME280;13935;55.672;37.764;2023-02-21T01:27:43;97723.09;;;-9.62;100.00
26192;BME280;13935;55.672;37.764;2023-02-21T01:29:05;97723.13;;;-9.53;100.00
26192;BME280;13935;55.672;37.764;2023-02-21T01:30:26;97725.19;;;-9.59;100.00
26192;BME280;13935;55.672;37.764;2023-02-21T01:31:49;97721.25;;;-9.61;100.00
26192;BME280;13935;55.672;37.764;2023-02-21T01:33:14;97720.09;;;-9.69;100.00
26192;BME280;13935;55.672;37.764;2023-02-21T01:34:40;97716.19;;;-9.63;100.00
26192;BME280;13935;55.672;37.764;2023-02-21T01:36:04;97719.69;;;-9.54;100.00
26192;BME280;13935;55.672;37.764;2023-02-21T01:37:24;97709.56;;;-9.65;100.00
26192;BME280;13935;55.672;37.764;2023-02-21T01:38:45;97718.84;;;-9.63;100.00
26192;BME280;13935;55.672;37.764;2023-02-21T01:40:07;97718.06;;;-9.72;100.00
26192;BME280;13935;55.672;37.764;2023-02-21T01:41:29;97720.41;;;-9.79;100.00
26192;BME280;13935;55.672;37.764;2023-02-21T01:42:49;97712.56;;;-9.67;100.00
26192;BME280;13935;55.672;37.764;2023-02-21T01:45:55;97717.22;;;-9.97;100.00
26192;BME280;13935;55.672;37.764;2023-02-21T01:47:18;97725.22;;;-9.97;100.00
26192;BME280;13935;55.672;37.764;2023-02-21T01:48:38;97725.69;;;-9.95;100.00
26192;BME280;13935;55.672;37.764;2023-02-21T01:50:01;97719.31;;;-10.16;100.00
26192;BME280;13935;55.672;37.764;2023-02-21T01:51:29;97721.03;;;-10.20;100.00
26192;BME280;13935;55.672;37.764;2023-02-21T01:52:51;97720.47;;;-10.00;100.00
26192;BME280;13935;55.672;37.764;2023-02-21T01:54:20;97722.72;;;-10.24;100.00
26192;BME280;13935;55.672;37.764;2023-02-21T01:55:43;97726.00;;;-9.97;100.00
26192;BME280;13935;55.672;37.764;2023-02-21T01:57:05;97716.56;;;-10.33;100.00
26192;BME280;13935;55.672;37.764;2023-02-21T01:58:28;97722.41;;;-10.23;100.00
26192;BME280;13935;55.672;37.764;2023-02-21T01:59:50;97722.47;;;-10.14;100.00
26192;BME280;13935;55.672;37.764;2023-02-21T02:01:24;97725.22;;;-10.28;100.00
26192;BME280;13935;55.672;37.764;2023-02-21T02:03:04;97723.13;;;-10.39;100.00
26192;BME280;13935;55.672;37.764;2023-02-21T02:04:24;97722.81;;;-10.38;100.00
26192;BME280;13935;55.672;37.764;2023-02-21T02:05:48;97721.16;;;-10.25;100.00
26192;BME280;13935;55.672;37.764;2023-02-21T02:07:09;97721.09;;;-10.34;100.00
26192;BME280;13935;55.672;37.764;2023-02-21T02:08:31;97724.81;;;-10.43;100.00
26192;BME280;13935;55.672;37.764;2023-02-21T02:09:52;97721.78;;;-10.50;100.00
26192;BME280;13935;55.672;37.764;2023-02-21T02:13:16;97722.38;;;-10.31;100.00
26192;BME280;13935;55.672;37.764;2023-02-21T02:19:41;97736.06;;;-10.54;100.00
26192;BME280;13935;55.672;37.764;2023-02-21T02:27:07;97720.09;;;-10.68;100.00
26192;BME280;13935;55.672;37.764;2023-02-21T02:36:26;97725.66;;;-11.22;100.00
26192;BME280;13935;55.672;37.764;2023-02-21T02:40:20;97719.63;;;-11.14;100.00
26192;BME280;13935;55.672;37.764;2023-02-21T02:41:41;97721.41;;;-11.23;100.00
26192;BME280;13935;55.672;37.764;2023-02-21T02:44:08;97721.22;;;-11.26;100.00
26192;BME280;13935;55.672;37.764;2023-02-21T02:46:40;97715.94;;;-11.39;100.00
26192;BME280;13935;55.672;37.764;2023-02-21T02:47:44;97721.25;;;-11.39;100.00
26192;BME280;13935;55.672;37.764;2023-02-21T02:48:56;97709.88;;;-11.53;100.00
26192;BME280;13935;55.672;37.764;2023-02-21T02:50:00;97714.28;;;-11.49;100.00
26192;BME280;13935;55.672;37.764;2023-02-21T02:51:08;97710.56;;;-11.61;100.00
26192;BME280;13935;55.672;37.764;2023-02-21T02:52:12;97711.69;;;-11.40;100.00
26192;BME280;13935;55.672;37.764;2023-02-21T02:53:20;97708.69;;;-11.61;100.00
26192;BME280;13935;55.672;37.764;2023-02-21T02:54:24;97708.63;;;-11.47;100.00
26192;BME280;13935;55.672;37.764;2023-02-21T02:56:37;97703.88;;;-11.72;100.00
26192;BME280;13935;55.672;37.764;2023-02-21T02:57:40;97703.19;;;-11.78;100.00
26192;BME280;13935;55.672;37.764;2023-02-21T02:58:53;97700.44;;;-11.86;100.00
26192;BME280;13935;55.672;37.764;2023-02-21T02:59:57;97698.47;;;-11.94;100.00
26192;BME280;13935;55.672;37.764;2023-02-21T03:01:39;97703.97;;;-12.04;100.00
26192;BME280;13935;55.672;37.764;2023-02-21T03:05:59;97701.63;;;-12.19;100.00
26192;BME280;13935;55.672;37.764;2023-02-21T03:07:40;97696.28;;;-11.92;100.00
26192;BME280;13935;55.672;37.764;2023-02-21T03:08:52;97705.56;;;-12.03;100.00
26192;BME280;13935;55.672;37.764;2023-02-21T03:11:47;97704.56;;;-11.80;100.00
26192;BME280;13935;55.672;37.764;2023-02-21T03:14:13;97709.41;;;-11.82;100.00
26192;BME280;13935;55.672;37.764;2023-02-21T03:15:21;97702.22;;;-11.95;100.00
26192;BME280;13935;55.672;37.764;2023-02-21T03:16:30;97704.28;;;-11.92;100.00
26192;BME280;13935;55.672;37.764;2023-02-21T03:17:41;97709.31;;;-11.77;100.00
26192;BME280;13935;55.672;37.764;2023-02-21T03:18:51;97714.84;;;-12.00;100.00
26192;BME280;13935;55.672;37.764;2023-02-21T03:19:57;97714.69;;;-11.55;100.00
26192;BME280;13935;55.672;37.764;2023-02-21T03:21:03;97705.56;;;-11.76;100.00
26192;BME280;13935;55.672;37.764;2023-02-21T03:22:15;97708.22;;;-11.90;100.00
26192;BME280;13935;55.672;37.764;2023-02-21T03:23:22;97708.22;;;-11.90;100.00
26192;BME280;13935;55.672;37.764;2023-02-21T03:24:27;97702.69;;;-11.93;100.00
26192;BME280;13935;55.672;37.764;2023-02-21T03:25:32;97703.41;;;-12.01;100.00
26192;BME280;13935;55.672;37.764;2023-02-21T03:26:40;97706.75;;;-11.82;100.00
26192;BME280;13935;55.672;37.764;2023-02-21T03:28:19;97712.75;;;-11.77;100.00
26192;BME280;13935;55.672;37.764;2023-02-21T03:29:23;97703.00;;;-11.81;100.00
26192;BME280;13935;55.672;37.764;2023-02-21T03:30:27;97703.19;;;-11.91;100.00
26192;BME280;13935;55.672;37.764;2023-02-21T03:31:36;97703.59;;;-11.84;100.00
26192;BME280;13935;55.672;37.764;2023-02-21T03:32:45;97706.16;;;-11.66;100.00
26192;BME280;13935;55.672;37.764;2023-02-21T03:33:50;97706.47;;;-11.45;100.00
26192;BME280;13935;55.672;37.764;2023-02-21T03:34:53;97712.44;;;-11.26;100.00
26192;BME280;13935;55.672;37.764;2023-02-21T03:35:59;97714.50;;;-11.23;100.00
26192;BME280;13935;55.672;37.764;2023-02-21T03:37:08;97708.25;;;-11.41;100.00
26192;BME280;13935;55.672;37.764;2023-02-21T03:38:12;97707.44;;;-11.41;100.00
26192;BME280;13935;55.672;37.764;2023-02-21T03:39:15;97709.47;;;-11.25;100.00
26192;BME280;13935;55.672;37.764;2023-02-21T03:40:21;97708.56;;;-11.21;100.00
26192;BME280;13935;55.672;37.764;2023-02-21T03:41:32;97707.56;;;-11.46;100.00
26192;BME280;13935;55.672;37.764;2023-02-21T03:42:39;97690.31;;;-11.62;100.00
26192;BME280;13935;55.672;37.764;2023-02-21T03:43:42;97702.94;;;-11.54;100.00
26192;BME280;13935;55.672;37.764;2023-02-21T03:44:55;97697.16;;;-11.56;100.00
26192;BME280;13935;55.672;37.764;2023-02-21T03:45:58;97700.97;;;-11.62;100.00
26192;BME280;13935;55.672;37.764;2023-02-21T03:47:04;97698.44;;;-11.67;100.00
26192;BME280;13935;55.672;37.764;2023-02-21T03:48:07;97692.91;;;-11.57;100.00
26192;BME280;13935;55.672;37.764;2023-02-21T03:49:11;97699.25;;;-11.67;100.00
26192;BME280;13935;55.672;37.764;2023-02-21T03:50:15;97691.16;;;-11.75;100.00
26192;BME280;13935;55.672;37.764;2023-02-21T03:51:23;97700.22;;;-11.76;100.00
26192;BME280;13935;55.672;37.764;2023-02-21T03:52:32;97691.06;;;-11.70;100.00
26192;BME280;13935;55.672;37.764;2023-02-21T03:53:36;97696.38;;;-11.70;100.00
26192;BME280;13935;55.672;37.764;2023-02-21T03:54:46;97692.72;;;-11.74;100.00
26192;BME280;13935;55.672;37.764;2023-02-21T03:55:57;97698.44;;;-11.67;100.00
26192;BME280;13935;55.672;37.764;2023-02-21T03:57:12;97689.31;;;-11.88;100.00
26192;BME280;13935;55.672;37.764;2023-02-21T03:58:19;97695.09;;;-11.73;100.00
26192;BME280;13935;55.672;37.764;2023-02-21T03:59:22;97683.94;;;-11.75;100.00
26192;BME280;13935;55.672;37.764;2023-02-21T04:00:26;97690.94;;;-11.65;100.00
26192;BME280;13935;55.672;37.764;2023-02-21T04:01:31;97692.72;;;-11.74;100.00
26192;BME280;13935;55.672;37.764;2023-02-21T04:02:39;97692.25;;;-11.76;100.00
26192;BME280;13935;55.672;37.764;2023-02-21T04:03:45;97681.09;;;-11.78;100.00
26192;BME280;13935;55.672;37.764;2023-02-21T04:04:48;97685.25;;;-11.86;100.00
26192;BME280;13935;55.672;37.764;2023-02-21T04:05:53;97696.16;;;-11.60;100.00
26192;BME280;13935;55.672;37.764;2023-02-21T04:06:55;97691.16;;;-11.89;100.00
26192;BME280;13935;55.672;37.764;2023-02-21T04:08:00;97689.56;;;-11.63;100.00
26192;BME280;13935;55.672;37.764;2023-02-21T04:09:03;97693.72;;;-11.48;100.00
26192;BME280;13935;55.672;37.764;2023-02-21T04:10:09;97692.91;;;-11.35;100.00
26192;BME280;13935;55.672;37.764;2023-02-21T04:11:21;97688.53;;;-11.53;100.00
26192;BME280;13935;55.672;37.764;2023-02-21T04:12:27;97687.84;;;-11.59;100.00
26192;BME280;13935;55.672;37.764;2023-02-21T04:13:31;97687.38;;;-11.74;100.00
26192;BME280;13935;55.672;37.764;2023-02-21T04:14:38;97688.69;;;-11.85;100.00
26192;BME280;13935;55.672;37.764;2023-02-21T04:15:43;97688.59;;;-11.80;100.00
26192;BME280;13935;55.672;37.764;2023-02-21T04:16:48;97697.28;;;-11.75;100.00
26192;BME280;13935;55.672;37.764;2023-02-21T04:17:55;97695.66;;;-11.62;100.00
26192;BME280;13935;55.672;37.764;2023-02-21T04:19:00;97691.94;;;-11.75;100.00
26192;BME280;13935;55.672;37.764;2023-02-21T04:20:09;97697.09;;;-11.91;100.00
26192;BME280;13935;55.672;37.764;2023-02-21T04:21:25;97698.25;;;-11.84;100.00
26192;BME280;13935;55.672;37.764;2023-02-21T04:22:30;97702.81;;;-11.98;100.00
26192;BME280;13935;55.672;37.764;2023-02-21T04:23:33;97698.97;;;-11.79;100.00
26192;BME280;13935;55.672;37.764;2023-02-21T04:24:38;97701.22;;;-11.99;100.00
26192;BME280;13935;55.672;37.764;2023-02-21T04:25:41;97701.13;;;-11.94;100.00
26192;BME280;13935;55.672;37.764;2023-02-21T04:26:50;97696.88;;;-12.08;100.00
26192;BME280;13935;55.672;37.764;2023-02-21T04:27:52;97698.88;;;-12.14;100.00
26192;BME280;13935;55.672;37.764;2023-02-21T04:28:55;97698.16;;;-12.19;100.00
26192;BME280;13935;55.672;37.764;2023-02-21T04:29:57;97707.72;;;-12.05;100.00
26192;BME280;13935;55.672;37.764;2023-02-21T04:31:00;97704.56;;;-12.20;100.00
26192;BME280;13935;55.672;37.764;2023-02-21T04:32:04;97699.66;;;-12.27;100.00
26192;BME280;13935;55.672;37.764;2023-02-21T04:33:07;97703.78;;;-12.34;100.00
26192;BME280;13935;55.672;37.764;2023-02-21T04:34:10;97701.59;;;-12.46;100.00
26192;BME280;13935;55.672;37.764;2023-02-21T04:35:16;97708.69;;;-12.41;100.00
26192;BME280;13935;55.672;37.764;2023-02-21T04:36:19;97697.34;;;-12.47;100.00
26192;BME280;13935;55.672;37.764;2023-02-21T04:37:21;97705.34;;;-12.47;100.00
26192;BME280;13935;55.672;37.764;2023-02-21T04:38:23;97705.22;;;-12.42;100.00
26192;BME280;13935;55.672;37.764;2023-02-21T04:39:26;97699.59;;;-12.54;100.00
26192;BME280;13935;55.672;37.764;2023-02-21T04:40:28;97705.53;;;-12.30;100.00
26192;BME280;13935;55.672;37.764;2023-02-21T04:41:31;97709.47;;;-12.41;100.00
26192;BME280;13935;55.672;37.764;2023-02-21T04:42:33;97706.09;;;-12.60;100.00
26192;BME280;13935;55.672;37.764;2023-02-21T04:43:36;97701.25;;;-12.71;100.00
26192;BME280;13935;55.672;37.764;2023-02-21T04:44:38;97705.25;;;-12.73;100.00
26192;BME280;13935;55.672;37.764;2023-02-21T04:45:44;97708.44;;;-12.71;100.00
26192;BME280;13935;55.672;37.764;2023-02-21T04:46:47;97713.38;;;-12.65;100.00
26192;BME280;13935;55.672;37.764;2023-02-21T04:47:50;97712.75;;;-12.44;100.00
26192;BME280;13935;55.672;37.764;2023-02-21T04:48:52;97712.03;;;-12.36;100.00
26192;BME280;13935;55.672;37.764;2023-02-21T04:49:55;97720.63;;;-12.25;100.00
26192;BME280;13935;55.672;37.764;2023-02-21T04:50:57;97713.63;;;-12.35;100.00
26192;BME280;13935;55.672;37.764;2023-02-21T04:52:14;97716.72;;;-12.60;100.00
26192;BME280;13935;55.672;37.764;2023-02-21T04:53:17;97715.75;;;-12.63;100.00
26192;BME280;13935;55.672;37.764;2023-02-21T04:54:19;97717.97;;;-12.39;100.00
26192;BME280;13935;55.672;37.764;2023-02-21T04:55:21;97724.25;;;-12.35;100.00
26192;BME280;13935;55.672;37.764;2023-02-21T04:56:25;97727.59;;;-12.43;100.00
26192;BME280;13935;55.672;37.764;2023-02-21T04:57:28;97720.72;;;-12.44;100.00
26192;BME280;13935;55.672;37.764;2023-02-21T04:58:31;97718.31;;;-12.59;100.00
26192;BME280;13935;55.672;37.764;2023-02-21T04:59:56;97719.66;;;-12.74;100.00
26192;BME280;13935;55.672;37.764;2023-02-21T05:00:58;97724.72;;;-12.60;100.00
26192;BME280;13935;55.672;37.764;2023-02-21T05:02:00;97721.06;;;-12.63;100.00
26192;BME280;13935;55.672;37.764;2023-02-21T05:03:03;97725.84;;;-12.34;100.00
26192;BME280;13935;55.672;37.764;2023-02-21T05:04:05;97720.72;;;-12.44;100.00
26192;BME280;13935;55.672;37.764;2023-02-21T05:05:08;97728.00;;;-12.49;100.00
26192;BME280;13935;55.672;37.764;2023-02-21T05:06:19;97723.19;;;-12.47;100.00
26192;BME280;13935;55.672;37.764;2023-02-21T05:07:21;97717.34;;;-12.62;100.00
26192;BME280;13935;55.672;37.764;2023-02-21T05:08:23;97725.03;;;-12.48;100.00
26192;BME280;13935;55.672;37.764;2023-02-21T05:09:29;97728.19;;;-12.46;100.00
26192;BME280;13935;55.672;37.764;2023-02-21T05:10:31;97719.22;;;-12.50;100.00
26192;BME280;13935;55.672;37.764;2023-02-21T05:11:45;97718.78;;;-12.70;100.00
26192;BME280;13935;55.672;37.764;2023-02-21T05:12:48;97721.75;;;-12.58;100.00
26192;BME280;13935;55.672;37.764;2023-02-21T05:13:50;97725.13;;;-12.53;100.00
26192;BME280;13935;55.672;37.764;2023-02-21T05:14:52;97716.72;;;-12.60;100.00
26192;BME280;13935;55.672;37.764;2023-02-21T05:15:54;97722.06;;;-12.60;100.00
26192;BME280;13935;55.672;37.764;2023-02-21T05:16:56;97722.16;;;-12.51;100.00
26192;BME280;13935;55.672;37.764;2023-02-21T05:17:58;97724.94;;;-12.88;100.00
26192;BME280;13935;55.672;37.764;2023-02-21T05:19:00;97720.16;;;-12.72;100.00
26192;BME280;13935;55.672;37.764;2023-02-21T05:20:04;97720.66;;;-12.70;100.00
26192;BME280;13935;55.672;37.764;2023-02-21T05:21:08;97723.81;;;-12.68;100.00
26192;BME280;13935;55.672;37.764;2023-02-21T05:22:10;97718.31;;;-12.59;100.00
26192;BME280;13935;55.672;37.764;2023-02-21T05:23:12;97721.44;;;-12.70;100.00
26192;BME280;13935;55.672;37.764;2023-02-21T05:24:19;97721.28;;;-12.60;100.00
26192;BME280;13935;55.672;37.764;2023-02-21T05:25:22;97719.28;;;-12.68;100.00
26192;BME280;13935;55.672;37.764;2023-02-21T05:26:26;97720.94;;;-12.40;100.00
26192;BME280;13935;55.672;37.764;2023-02-21T05:27:32;97723.19;;;-12.34;100.00
26192;BME280;13935;55.672;37.764;2023-02-21T05:28:34;97726.63;;;-12.47;100.00
26192;BME280;13935;55.672;37.764;2023-02-21T05:29:36;97729.38;;;-12.52;100.00
26192;BME280;13935;55.672;37.764;2023-02-21T05:30:38;97729.03;;;-12.63;100.00
26192;BME280;13935;55.672;37.764;2023-02-21T05:31:40;97724.91;;;-12.56;100.00
26192;BME280;13935;55.672;37.764;2023-02-21T05:32:43;97724.63;;;-12.55;100.00
26192;BME280;13935;55.672;37.764;2023-02-21T05:33:45;97724.97;;;-12.74;100.00
26192;BME280;13935;55.672;37.764;2023-02-21T05:34:46;97723.50;;;-12.67;100.00
26192;BME280;13935;55.672;37.764;2023-02-21T05:35:49;97727.50;;;-12.83;100.00
26192;BME280;13935;55.672;37.764;2023-02-21T05:36:51;97729.88;;;-12.81;100.00
26192;BME280;13935;55.672;37.764;2023-02-21T05:37:53;97726.94;;;-12.80;100.00
26192;BME280;13935;55.672;37.764;2023-02-21T05:38:56;97727.78;;;-12.53;100.00
26192;BME280;13935;55.672;37.764;2023-02-21T05:39:58;97732.78;;;-12.64;100.00
26192;BME280;13935;55.672;37.764;2023-02-21T05:41:00;97729.41;;;-13.02;100.00
26192;BME280;13935;55.672;37.764;2023-02-21T05:42:04;97730.91;;;-12.64;100.00
26192;BME280;13935;55.672;37.764;2023-02-21T05:43:09;97727.78;;;-12.53;100.00
26192;BME280;13935;55.672;37.764;2023-02-21T05:44:16;97720.47;;;-12.61;100.00
26192;BME280;13935;55.672;37.764;2023-02-21T05:45:18;97730.41;;;-12.21;100.00
26192;BME280;13935;55.672;37.764;2023-02-21T05:46:27;97730.28;;;-12.29;100.00
26192;BME280;13935;55.672;37.764;2023-02-21T05:47:32;97725.38;;;-12.09;100.00
26192;BME280;13935;55.672;37.764;2023-02-21T05:48:36;97725.19;;;-12.12;100.00
26192;BME280;13935;55.672;37.764;2023-02-21T05:49:38;97715.81;;;-12.10;100.00
26192;BME280;13935;55.672;37.764;2023-02-21T05:50:41;97729.00;;;-12.32;100.00
26192;BME280;13935;55.672;37.764;2023-02-21T05:51:44;97730.75;;;-12.41;100.00
26192;BME280;13935;55.672;37.764;2023-02-21T05:52:47;97728.19;;;-12.46;100.00
26192;BME280;13935;55.672;37.764;2023-02-21T05:53:50;97730.59;;;-12.31;100.00
26192;BME280;13935;55.672;37.764;2023-02-21T05:54:53;97728.06;;;-11.82;100.00
26192;BME280;13935;55.672;37.764;2023-02-21T05:55:56;97716.19;;;-11.90;100.00
26192;BME280;13935;55.672;37.764;2023-02-21T05:56:58;97729.22;;;-12.15;100.00
26192;BME280;13935;55.672;37.764;2023-02-21T05:58:00;97732.56;;;-12.23;100.00
26192;BME280;13935;55.672;37.764;2023-02-21T05:59:07;97719.56;;;-12.38;100.00
26192;BME280;13935;55.672;37.764;2023-02-21T06:00:18;97725.84;;;-12.20;100.00
26192;BME280;13935;55.672;37.764;2023-02-21T06:01:22;97725.13;;;-12.53;100.00
26192;BME280;13935;55.672;37.764;2023-02-21T06:02:24;97722.53;;;-12.26;100.00
26192;BME280;13935;55.672;37.764;2023-02-21T06:03:27;97727.03;;;-12.26;100.00
26192;BME280;13935;55.672;37.764;2023-02-21T06:04:29;97729.63;;;-12.08;100.00
26192;BME280;13935;55.672;37.764;2023-02-21T06:05:34;97724.25;;;-12.35;100.00
26192;BME280;13935;55.672;37.764;2023-02-21T06:06:36;97732.19;;;-12.16;100.00
26192;BME280;13935;55.672;37.764;2023-02-21T06:07:41;97728.44;;;-12.02;100.00
26192;BME280;13935;55.672;37.764;2023-02-21T06:08:46;97732.19;;;-12.03;100.00
26192;BME280;13935;55.672;37.764;2023-02-21T06:09:52;97724.41;;;-12.13;100.00
26192;BME280;13935;55.672;37.764;2023-02-21T06:10:55;97727.69;;;-12.48;100.00
26192;BME280;13935;55.672;37.764;2023-02-21T06:11:57;97734.19;;;-12.54;100.00
26192;BME280;13935;55.672;37.764;2023-02-21T06:12:59;97730.81;;;-12.14;100.00
26192;BME280;13935;55.672;37.764;2023-02-21T06:14:04;97725.97;;;-12.25;100.00
26192;BME280;13935;55.672;37.764;2023-02-21T06:15:07;97727.94;;;-12.04;100.00
26192;BME280;13935;55.672;37.764;2023-02-21T06:16:09;97737.41;;;-12.11;100.00
26192;BME280;13935;55.672;37.764;2023-02-21T06:17:12;97730.72;;;-12.09;100.00
26192;BME280;13935;55.672;37.764;2023-02-21T06:18:15;97731.63;;;-12.00;100.00
26192;BME280;13935;55.672;37.764;2023-02-21T06:19:18;97734.44;;;-11.96;100.00
26192;BME280;13935;55.672;37.764;2023-02-21T06:20:22;97735.84;;;-11.86;100.00
26192;BME280;13935;55.672;37.764;2023-02-21T06:21:25;97736.72;;;-11.90;100.00
26192;BME280;13935;55.672;37.764;2023-02-21T06:22:31;97740.28;;;-12.08;100.00
26192;BME280;13935;55.672;37.764;2023-02-21T06:23:34;97736.34;;;-11.97;100.00
26192;BME280;13935;55.672;37.764;2023-02-21T06:24:37;97734.56;;;-11.88;100.00
26192;BME280;13935;55.672;37.764;2023-02-21T06:25:42;97735.53;;;-11.71;100.00
26192;BME280;13935;55.672;37.764;2023-02-21T06:26:46;97728.94;;;-12.00;100.00
26192;BME280;13935;55.672;37.764;2023-02-21T06:27:53;97732.38;;;-11.86;100.00
26192;BME280;13935;55.672;37.764;2023-02-21T06:28:56;97733.00;;;-11.89;100.00
26192;BME280;13935;55.672;37.764;2023-02-21T06:30:01;97734.16;;;-11.95;100.00
26192;BME280;13935;55.672;37.764;2023-02-21T06:31:05;97734.75;;;-12.11;100.00
26192;BME280;13935;55.672;37.764;2023-02-21T06:32:08;97742.72;;;-12.25;100.00
26192;BME280;13935;55.672;37.764;2023-02-21T06:33:13;97739.66;;;-12.32;100.00
26192;BME280;13935;55.672;37.764;2023-02-21T06:34:16;97744.59;;;-12.12;100.00
26192;BME280;13935;55.672;37.764;2023-02-21T06:35:18;97735.94;;;-11.77;100.00
26192;BME280;13935;55.672;37.764;2023-02-21T06:36:23;97735.53;;;-11.84;100.00
26192;BME280;13935;55.672;37.764;2023-02-21T06:37:25;97742.63;;;-11.93;100.00